Time;durP1;ratioP1;P1;durP2;ratioP2;P2;SDS_P1;SDS_P2;PMS_P1;PMS_P2;Temp;Humidity;BMP_temperature;BMP_pressure;BME280_temperature;BME280_humidity;BME280_pressure;Samples;Min_cycle;Max_cycle;Signal;HPM_P1;HPM_P2
2021/07/28 01:19:30;;;;;;;23.00;9.50;;;;;;;19.32;69.27;100844.26;1697850;83;21553;-42
2021/07/28 01:21:59;;;;;;;28.62;13.78;;;;;;;19.21;70.54;100838.22;1703544;82;21691;-38
2021/07/28 01:24:25;;;;;;;25.48;9.80;;;;;;;19.13;70.27;100836.44;1705279;83;21121;-41
2021/07/28 01:26:53;;;;;;;11.40;7.53;;;;;;;19.06;70.53;100833.25;1725634;83;21020;-38
2021/07/28 01:29:19;;;;;;;13.15;4.92;;;;;;;19.03;70.71;100836.03;1723840;81;22486;-38
2021/07/28 01:31:47;;;;;;;11.12;5.35;;;;;;;18.99;70.87;100837.11;1680679;83;21533;-38
2021/07/28 01:34:13;;;;;;;12.73;4.75;;;;;;;18.95;71.04;100832.42;1708063;83;20941;-38
2021/07/28 01:36:40;;;;;;;12.58;4.85;;;;;;;18.91;71.08;100832.19;1682002;83;21071;-38
2021/07/28 01:39:08;;;;;;;12.25;4.78;;;;;;;18.88;71.06;100827.54;1699394;83;21035;-37
2021/07/28 01:41:34;;;;;;;5.53;4.30;;;;;;;18.85;71.01;100821.13;1713060;82;20929;-38
2021/07/28 01:44:00;;;;;;;13.65;5.47;;;;;;;18.84;70.97;100824.68;1721332;82;21663;-38
2021/07/28 01:46:27;;;;;;;11.53;5.03;;;;;;;18.83;70.83;100818.59;1696864;83;20945;-38
2021/07/28 01:48:53;;;;;;;11.05;4.47;;;;;;;18.85;71.01;100823.31;1697808;83;21120;-38
2021/07/28 01:51:20;;;;;;;10.13;5.10;;;;;;;18.86;70.90;100828.08;1702873;83;21080;-38
2021/07/28 01:53:47;;;;;;;13.25;5.30;;;;;;;18.88;70.42;100834.96;1698129;83;21043;-38
2021/07/28 01:56:15;;;;;;;8.35;4.80;;;;;;;18.98;70.20;100833.20;1699611;83;21111;-38
2021/07/28 01:58:46;;;;;;;8.98;4.85;;;;;;;19.02;69.90;100833.02;1723334;83;21499;-38
2021/07/28 02:01:09;;;;;;;8.55;4.20;;;;;;;19.07;69.44;100836.71;1705209;82;21667;-38
2021/07/28 02:03:36;;;;;;;6.53;4.33;;;;;;;19.15;68.85;100842.45;1698961;82;21522;-38
2021/07/28 02:06:02;;;;;;;10.63;4.42;;;;;;;19.21;68.80;100836.07;1703176;82;20961;-38
2021/07/28 02:08:29;;;;;;;7.05;4.58;;;;;;;19.26;68.87;100844.56;1720708;82;20933;-38
2021/07/28 02:10:56;;;;;;;10.50;4.17;;;;;;;19.29;68.98;100840.47;1710322;82;20937;-38
2021/07/28 02:13:23;;;;;;;11.60;4.87;;;;;;;19.32;68.94;100840.31;1701719;83;21120;-38
2021/07/28 02:15:49;;;;;;;10.90;4.25;;;;;;;19.34;68.83;100844.20;1706702;83;21515;-38
2021/07/28 02:18:17;;;;;;;12.80;4.90;;;;;;;19.36;68.91;100844.97;1697476;83;21126;-38
2021/07/28 02:20:44;;;;;;;9.68;4.75;;;;;;;19.42;68.60;100852.53;1698055;83;20942;-39
2021/07/28 02:23:11;;;;;;;8.43;4.55;;;;;;;19.49;68.03;100844.73;1700492;83;20972;-39
2021/07/28 02:25:37;;;;;;;10.23;4.22;;;;;;;19.58;68.14;100838.17;1699879;83;21010;-39
2021/07/28 02:28:04;;;;;;;11.00;4.55;;;;;;;19.64;68.22;100842.27;1711115;82;21019;-40
2021/07/28 02:30:30;;;;;;;10.80;4.70;;;;;;;19.70;68.24;100839.33;1630330;86;20963;-40
2021/07/28 02:32:56;;;;;;;5.45;4.03;;;;;;;19.81;67.73;100848.81;1682368;83;20986;-38
2021/07/28 02:35:23;;;;;;;9.90;4.10;;;;;;;19.89;67.78;100848.90;1686947;83;20947;-39
2021/07/28 02:37:49;;;;;;;8.55;4.22;;;;;;;19.97;67.53;100851.17;1687479;83;21530;-39
2021/07/28 02:40:19;;;;;;;12.00;4.58;;;;;;;20.02;67.03;100852.61;1687177;83;20993;-40
2021/07/28 02:42:45;;;;;;;11.12;4.55;;;;;;;20.12;66.94;100847.72;1700969;83;20989;-39
2021/07/28 02:45:12;;;;;;;14.05;4.60;;;;;;;20.19;67.08;100842.52;1692436;83;20993;-39
2021/07/28 02:47:39;;;;;;;7.87;4.50;;;;;;;20.26;67.04;100844.36;1659351;85;21014;-40
2021/07/28 02:50:06;;;;;;;11.63;4.37;;;;;;;20.31;66.98;100842.33;1662241;85;21126;-39
2021/07/28 02:52:32;;;;;;;14.90;5.15;;;;;;;20.35;66.67;100843.03;1708193;82;21165;-39
2021/07/28 02:55:05;;;;;;;10.60;4.25;;;;;;;20.41;66.57;100830.03;1706755;82;20925;-40
2021/07/28 02:57:35;;;;;;;7.60;4.60;;;;;;;20.44;66.58;100832.01;1706499;82;20941;-40
2021/07/28 03:00:05;;;;;;;15.95;4.83;;;;;;;20.46;66.48;100830.17;1706465;82;21565;-40
2021/07/28 03:02:31;;;;;;;10.95;4.50;;;;;;;20.49;65.74;100834.39;1728370;82;21731;-39
2021/07/28 03:04:57;;;;;;;13.75;5.15;;;;;;;20.54;65.23;100828.41;1726833;82;20929;-39
2021/07/28 03:07:24;;;;;;;13.78;4.78;;;;;;;20.61;65.42;100824.54;1714133;82;20932;-39
2021/07/28 03:09:50;;;;;;;9.65;4.95;;;;;;;20.65;65.40;100822.12;1725698;82;21471;-39
2021/07/28 03:12:18;;;;;;;10.23;4.78;;;;;;;20.67;65.30;100817.63;1709036;83;20913;-39
2021/07/28 03:14:44;;;;;;;8.03;5.12;;;;;;;20.71;65.27;100816.13;1705786;82;21123;-39
2021/07/28 03:17:11;;;;;;;20.40;5.50;;;;;;;20.75;65.03;100813.70;1706758;82;20968;-39
2021/07/28 03:19:37;;;;;;;16.23;5.95;;;;;;;20.81;65.26;100809.45;1736060;82;21020;-39
2021/07/28 03:22:04;;;;;;;10.23;5.28;;;;;;;20.86;64.66;100803.94;1735277;82;21000;-39
2021/07/28 03:24:30;;;;;;;18.02;5.90;;;;;;;20.93;64.42;100807.91;1701892;82;21366;-39
2021/07/28 03:26:57;;;;;;;7.60;5.00;;;;;;;21.01;64.70;100807.02;1718155;82;21118;-39
2021/07/28 03:29:23;;;;;;;12.03;6.05;;;;;;;21.07;64.84;100801.41;1716202;82;21808;-40
2021/07/28 03:31:50;;;;;;;22.15;6.65;;;;;;;21.15;63.93;100805.37;1706478;82;20998;-39
2021/07/28 03:34:16;;;;;;;18.73;5.95;;;;;;;21.22;63.82;100808.05;1705286;84;21285;-39
2021/07/28 03:36:43;;;;;;;17.37;6.17;;;;;;;21.30;64.22;100807.58;1708887;82;20996;-39
2021/07/28 03:39:10;;;;;;;17.23;6.37;;;;;;;21.34;64.11;100805.14;1708487;82;21185;-39
2021/07/28 03:41:36;;;;;;;17.37;6.62;;;;;;;21.41;64.08;100808.27;1709415;81;20949;-39
2021/07/28 03:44:04;;;;;;;12.78;6.15;;;;;;;21.44;63.64;100816.84;1706114;82;20984;-39
2021/07/28 03:46:30;;;;;;;24.12;7.45;;;;;;;21.46;63.07;100800.94;1715060;82;20987;-40
2021/07/28 03:48:57;;;;;;;15.85;6.58;;;;;;;21.47;63.40;100800.00;1705980;82;20992;-39
2021/07/28 03:51:24;;;;;;;18.25;6.90;;;;;;;21.47;63.28;100806.13;1707816;82;21206;-39
2021/07/28 03:53:50;;;;;;;25.97;6.97;;;;;;;21.49;63.12;100800.30;1722585;82;20937;-39
2021/07/28 03:56:22;;;;;;;16.87;6.33;;;;;;;21.54;62.79;100796.09;1706364;82;20936;-39
2021/07/28 03:58:45;;;;;;;15.40;6.78;;;;;;;21.62;63.11;100796.95;1717832;82;21036;-39
2021/07/28 04:01:11;;;;;;;20.43;7.75;;;;;;;21.68;63.30;100798.77;1727433;82;21529;-40
2021/07/28 04:03:37;;;;;;;22.15;7.28;;;;;;;21.77;62.97;100799.17;1705805;82;21867;-40
2021/07/28 04:06:04;;;;;;;15.10;7.50;;;;;;;21.90;63.46;100795.31;1708250;82;21522;-39
2021/07/28 04:08:31;;;;;;;16.25;7.35;;;;;;;22.04;64.29;100788.72;1724212;82;20956;-39
2021/07/28 04:10:57;;;;;;;14.80;7.33;;;;;;;22.22;64.56;100790.67;1701338;82;20954;-39
2021/07/28 04:13:25;;;;;;;22.22;8.63;;;;;;;22.41;64.67;100782.10;1728194;82;21021;-39
2021/07/28 04:15:52;;;;;;;17.80;6.97;;;;;;;22.65;64.51;100780.56;1717893;82;21083;-40
2021/07/28 04:18:18;;;;;;;19.77;7.90;;;;;;;22.92;64.23;100782.35;1705702;82;20936;-37
2021/07/28 04:20:45;;;;;;;17.45;7.53;;;;;;;23.23;62.60;100782.95;1712801;82;21036;-38
2021/07/28 04:23:11;;;;;;;23.20;7.70;;;;;;;23.57;61.83;100780.32;1696502;83;21067;-37
2021/07/28 04:25:38;;;;;;;25.97;7.67;;;;;;;23.89;60.63;100784.70;1705803;82;21004;-37
2021/07/28 04:28:04;;;;;;;17.87;7.83;;;;;;;24.14;60.20;100776.90;1709678;82;21201;-37
2021/07/28 04:30:32;;;;;;;17.52;6.85;;;;;;;24.41;59.14;100777.20;1712858;82;20988;-37
2021/07/28 04:32:58;;;;;;;27.98;7.50;;;;;;;24.69;58.59;100768.08;1718053;81;20992;-38
2021/07/28 04:35:25;;;;;;;30.77;8.30;;;;;;;25.02;58.42;100774.53;1734670;82;21478;-37
2021/07/28 04:37:52;;;;;;;27.42;8.43;;;;;;;25.38;57.84;100775.80;1707278;82;20975;-38
2021/07/28 04:40:19;;;;;;;29.20;7.75;;;;;;;25.73;57.03;100776.27;1730350;82;21149;-38
2021/07/28 04:42:45;;;;;;;27.20;8.28;;;;;;;26.11;55.50;100776.36;1733803;82;20960;-38
2021/07/28 04:45:12;;;;;;;32.48;8.30;;;;;;;26.46;55.23;100771.05;1733481;82;21004;-37
2021/07/28 04:47:39;;;;;;;37.83;9.18;;;;;;;26.79;53.65;100779.87;1706484;82;21518;-37
2021/07/28 04:50:07;;;;;;;60.12;10.28;;;;;;;27.01;52.74;100777.62;1636294;86;21545;-39
2021/07/28 04:52:33;;;;;;;91.45;11.30;;;;;;;27.07;53.07;100773.63;1705969;82;20976;-39
2021/07/28 04:55:00;;;;;;;85.22;11.28;;;;;;;27.04;52.13;100772.55;1705564;82;20976;-39
2021/07/28 04:57:26;;;;;;;105.20;11.12;;;;;;;27.03;52.29;100774.39;1728607;82;20929;-39
2021/07/28 04:59:53;;;;;;;73.30;10.95;;;;;;;26.99;52.13;100778.74;1712687;82;20928;-39
2021/07/28 05:02:23;;;;;;;42.98;8.83;;;;;;;26.89;53.66;100774.68;1727026;82;20964;-39
2021/07/28 05:04:48;;;;;;;70.60;12.03;;;;;;;26.75;53.05;100771.80;1733777;81;21132;-39
2021/07/28 05:07:14;;;;;;;39.85;9.53;;;;;;;26.64;54.83;100775.34;1713572;82;20960;-39
2021/07/28 05:09:41;;;;;;;35.13;8.95;;;;;;;26.59;55.58;100766.42;1722766;82;20960;-39
2021/07/28 05:12:08;;;;;;;27.40;8.23;;;;;;;26.61;56.30;100768.46;1722642;82;20983;-40
2021/07/28 05:14:34;;;;;;;25.65;7.55;;;;;;;26.71;56.41;100761.09;1705656;84;20942;-39
2021/07/28 05:17:00;;;;;;;25.02;8.43;;;;;;;26.82;56.00;100760.56;1706613;82;21105;-39
2021/07/28 05:19:27;;;;;;;20.40;8.23;;;;;;;26.87;55.59;100761.52;1718210;82;21012;-39
2021/07/28 05:21:53;;;;;;;20.32;7.65;;;;;;;26.93;54.93;100755.72;1733242;82;21018;-40
2021/07/28 05:24:20;;;;;;;17.62;8.35;;;;;;;27.07;54.81;100753.70;1717265;82;22523;-39
2021/07/28 05:26:47;;;;;;;25.02;8.03;;;;;;;27.22;53.55;100755.08;1713521;82;21942;-39
2021/07/28 05:29:14;;;;;;;14.80;7.62;;;;;;;27.32;53.29;100751.16;1724061;82;22115;-40
2021/07/28 05:31:40;;;;;;;25.00;8.33;;;;;;;27.51;53.09;100747.78;1714259;82;21543;-39
2021/07/28 05:34:06;;;;;;;38.13;9.05;;;;;;;27.61;52.20;100742.52;1719461;82;21574;-39
2021/07/28 05:36:33;;;;;;;26.48;8.25;;;;;;;27.68;52.33;100742.84;1716533;82;21012;-39
2021/07/28 05:38:59;;;;;;;25.75;8.28;;;;;;;27.76;52.58;100745.66;1707168;82;20948;-39
2021/07/28 05:41:26;;;;;;;24.45;9.28;;;;;;;27.80;53.48;100740.42;1727053;82;21144;-39
2021/07/28 05:43:52;;;;;;;25.27;7.92;;;;;;;27.83;52.93;100732.17;1734579;82;20972;-39
2021/07/28 05:46:18;;;;;;;18.02;7.67;;;;;;;27.86;53.28;100731.08;1713255;82;20917;-40
2021/07/28 05:48:45;;;;;;;15.35;7.92;;;;;;;27.98;53.71;100733.14;1717385;82;22042;-40
2021/07/28 05:51:11;;;;;;;19.15;7.72;;;;;;;28.20;53.93;100727.28;1721778;82;20967;-40
2021/07/28 05:53:38;;;;;;;23.60;7.75;;;;;;;28.51;52.86;100725.84;1707413;82;21156;-40
2021/07/28 05:56:05;;;;;;;18.92;7.95;;;;;;;28.83;52.21;100728.73;1709620;82;20996;-40
2021/07/28 05:58:31;;;;;;;13.38;7.70;;;;;;;29.04;50.11;100722.40;1676115;83;20979;-40
2021/07/28 06:00:58;;;;;;;12.05;7.28;;;;;;;29.27;50.54;100722.08;1709707;82;21605;-40
2021/07/28 06:03:25;;;;;;;27.40;7.92;;;;;;;29.64;50.16;100722.59;1712688;82;21469;-40
2021/07/28 06:05:51;;;;;;;18.90;8.00;;;;;;;30.02;48.73;100722.09;1691227;83;22026;-40
2021/07/28 06:08:18;;;;;;;15.25;7.90;;;;;;;30.32;47.41;100721.91;1705493;82;21454;-40
2021/07/28 06:10:46;;;;;;;15.53;7.62;;;;;;;30.47;46.94;100720.37;1706002;82;21011;-40
2021/07/28 06:13:13;;;;;;;17.98;7.62;;;;;;;30.61;46.98;100727.55;1705524;84;21001;-39
2021/07/28 06:15:40;;;;;;;18.37;6.97;;;;;;;30.82;46.59;100725.39;1714688;82;21627;-39
2021/07/28 06:18:07;;;;;;;15.90;6.92;;;;;;;31.10;45.17;100727.92;1706200;82;21201;-40
2021/07/28 06:20:33;;;;;;;17.80;6.72;;;;;;;31.16;43.93;100721.60;1708999;82;21028;-39
2021/07/28 06:22:59;;;;;;;17.50;6.85;;;;;;;31.12;44.76;100711.71;1711462;82;20930;-40
2021/07/28 06:25:26;;;;;;;25.05;7.28;;;;;;;31.21;45.18;100707.30;1680948;83;20988;-40
2021/07/28 06:27:52;;;;;;;23.20;6.53;;;;;;;31.37;45.39;100699.86;1711834;82;20929;-40
2021/07/28 06:30:19;;;;;;;17.92;7.00;;;;;;;31.54;45.27;100704.30;1727322;82;21091;-39
2021/07/28 06:32:45;;;;;;;10.90;6.53;;;;;;;31.51;45.09;100700.61;1721323;82;20941;-40
2021/07/28 06:35:13;;;;;;;21.62;6.50;;;;;;;31.51;45.75;100701.94;1718042;82;20999;-40
2021/07/28 06:37:41;;;;;;;11.73;6.60;;;;;;;31.59;45.19;100698.47;1717718;82;21016;-40
2021/07/28 06:40:09;;;;;;;17.80;6.90;;;;;;;31.69;46.09;100696.98;1713798;82;20929;-40
2021/07/28 06:42:35;;;;;;;12.05;6.67;;;;;;;31.76;45.21;100707.42;1714347;82;21014;-40
2021/07/28 06:45:03;;;;;;;26.87;6.47;;;;;;;31.78;45.90;100709.92;1712525;81;21033;-40
2021/07/28 06:47:30;;;;;;;20.75;7.20;;;;;;;31.81;45.67;100713.61;1707122;82;20968;-40
2021/07/28 06:49:58;;;;;;;19.60;6.55;;;;;;;31.76;46.01;100716.78;1705577;83;20937;-40
2021/07/28 06:52:24;;;;;;;13.68;6.95;;;;;;;31.72;46.44;100714.07;1717218;81;20917;-40
2021/07/28 06:54:52;;;;;;;19.65;6.50;;;;;;;31.78;45.59;100709.92;1730724;82;20981;-40
2021/07/28 06:57:19;;;;;;;15.80;6.15;;;;;;;31.66;45.69;100709.34;1707454;82;21004;-40
2021/07/28 06:59:45;;;;;;;18.95;6.00;;;;;;;31.56;45.31;100707.30;1705561;82;20924;-40
2021/07/28 07:02:12;;;;;;;13.43;5.97;;;;;;;31.54;46.34;100702.95;1710784;82;21549;-39
2021/07/28 07:04:38;;;;;;;19.62;6.40;;;;;;;31.55;46.01;100703.78;1733138;82;21399;-40
2021/07/28 07:07:06;;;;;;;12.10;5.83;;;;;;;31.67;45.76;100702.51;1724168;82;21367;-40
2021/07/28 07:09:32;;;;;;;11.05;5.85;;;;;;;31.91;45.84;100704.11;1728159;82;21004;-39
2021/07/28 07:11:59;;;;;;;21.07;6.42;;;;;;;32.13;46.03;100705.84;1692174;82;20965;-39
2021/07/28 07:14:26;;;;;;;22.93;6.80;;;;;;;32.14;45.31;100711.04;1705558;84;20992;-40
2021/07/28 07:16:55;;;;;;;28.52;6.78;;;;;;;31.95;45.44;100713.48;1705765;82;20980;-39
2021/07/28 07:19:22;;;;;;;19.95;6.78;;;;;;;31.85;44.04;100726.17;1681241;84;21147;-40
2021/07/28 07:21:49;;;;;;;20.90;6.62;;;;;;;31.82;44.64;100716.62;1699805;82;20906;-40
2021/07/28 07:24:15;;;;;;;23.12;7.40;;;;;;;32.03;43.53;100716.20;1697672;84;20956;-40
2021/07/28 07:26:42;;;;;;;25.50;7.33;;;;;;;32.28;41.58;100706.88;1697554;84;21024;-40
2021/07/28 07:29:08;;;;;;;43.52;7.72;;;;;;;32.33;41.84;100711.27;1697805;84;20948;-40
2021/07/28 07:35:47;;;;;;;35.63;12.68;;;;;;;32.38;40.41;100720.97;1787028;80;20955;-38
2021/07/28 07:38:15;;;;;;;27.10;7.10;;;;;;;32.47;40.17;100727.17;1771384;79;21021;-39
2021/07/28 07:40:42;;;;;;;29.02;7.50;;;;;;;32.51;38.25;100735.72;1731921;81;20916;-39
2021/07/28 07:43:11;;;;;;;33.90;6.83;;;;;;;32.42;38.94;100730.85;1729402;83;21027;-39
2021/07/28 07:45:37;;;;;;;18.23;6.95;;;;;;;32.42;38.64;100728.66;1739302;80;20999;-39
2021/07/28 07:48:04;;;;;;;29.25;7.30;;;;;;;32.53;39.24;100724.34;1729469;81;20943;-38
2021/07/28 07:50:35;;;;;;;40.38;8.25;;;;;;;32.74;38.79;100728.36;1729567;81;21147;-38
2021/07/28 07:53:02;;;;;;;33.10;7.35;;;;;;;32.92;37.67;100725.53;1700430;82;21505;-38
2021/07/28 07:55:28;;;;;;;34.83;7.10;;;;;;;33.02;37.02;100719.98;1700591;81;21003;-39
2021/07/28 07:57:55;;;;;;;43.55;7.10;;;;;;;33.04;36.47;100725.50;1755351;79;21075;-38
2021/07/28 08:00:21;;;;;;;22.65;7.10;;;;;;;33.17;35.32;100723.62;1740954;81;21554;-38
2021/07/28 08:02:48;;;;;;;32.48;6.60;;;;;;;33.24;36.67;100713.91;1723857;81;21038;-39
2021/07/28 08:05:15;;;;;;;25.20;6.87;;;;;;;33.31;36.03;100709.20;1740056;80;21506;-38
2021/07/28 08:07:41;;;;;;;36.55;8.40;;;;;;;33.28;36.95;100713.56;1729362;81;20983;-41
2021/07/28 08:10:10;;;;;;;34.48;7.70;;;;;;;33.24;36.87;100719.27;1744376;81;20978;-45
2021/07/28 08:12:37;;;;;;;37.93;7.25;;;;;;;33.19;36.86;100720.78;1668317;84;21521;-40
2021/07/28 08:15:06;;;;;;;26.10;6.55;;;;;;;33.04;37.20;100716.63;1691166;84;20944;-39
2021/07/28 08:17:32;;;;;;;22.90;6.90;;;;;;;32.82;35.56;100721.13;1691029;84;21050;-38
2021/07/28 08:20:00;;;;;;;25.90;6.45;;;;;;;32.66;35.51;100722.50;1691340;84;21028;-39
2021/07/28 08:22:28;;;;;;;28.47;6.97;;;;;;;32.53;35.30;100713.62;1691298;83;21572;-39
2021/07/28 08:24:54;;;;;;;16.07;5.58;;;;;;;32.48;35.71;100710.61;1687041;84;21072;-40
2021/07/28 08:27:22;;;;;;;21.70;5.53;;;;;;;32.54;34.95;100713.44;1691222;84;21135;-40
2021/07/28 08:29:49;;;;;;;39.13;5.37;;;;;;;32.54;34.90;100703.25;1695413;83;21485;-39
2021/07/28 08:32:15;;;;;;;20.72;4.90;;;;;;;32.51;34.77;100711.09;1669142;83;20980;-37
2021/07/28 08:34:42;;;;;;;28.77;5.20;;;;;;;32.42;34.92;100711.25;1715889;83;21557;-38
2021/07/28 08:37:09;;;;;;;19.50;5.20;;;;;;;32.18;34.29;100708.36;1710122;82;21052;-39
2021/07/28 08:39:37;;;;;;;16.75;4.87;;;;;;;31.98;34.35;100712.33;1695742;83;21015;-39
2021/07/28 08:42:05;;;;;;;29.98;5.45;;;;;;;31.84;34.24;100705.28;1696991;83;20968;-39
2021/07/28 08:44:35;;;;;;;16.65;4.78;;;;;;;31.61;35.29;100712.52;1666784;83;21036;-38
2021/07/28 08:47:02;;;;;;;47.35;7.20;;;;;;;31.46;36.29;100727.00;1694626;83;21063;-40
2021/07/28 08:49:29;;;;;;;34.83;5.97;;;;;;;31.29;37.28;100726.04;1695095;83;21540;-38
2021/07/28 08:51:55;;;;;;;53.20;6.87;;;;;;;31.16;37.68;100729.10;1696701;83;21472;-38
2021/07/28 08:54:22;;;;;;;36.88;5.83;;;;;;;30.96;37.04;100730.67;1696011;83;21194;-38
2021/07/28 08:56:49;;;;;;;45.85;6.22;;;;;;;30.72;37.41;100725.13;1696392;83;20941;-39
2021/07/28 08:59:32;;;;;;;31.52;6.30;;;;;;;30.53;38.19;100721.08;1698840;83;21024;-38
2021/07/28 09:02:00;;;;;;;15.65;5.37;;;;;;;30.31;39.13;100724.20;1670181;83;21564;-39
2021/07/28 09:04:27;;;;;;;16.65;5.75;;;;;;;30.10;40.34;100718.16;1690796;83;21042;-39
2021/07/28 09:06:54;;;;;;;20.05;5.25;;;;;;;29.93;41.09;100714.94;1691964;83;21024;-38
2021/07/28 09:09:21;;;;;;;17.17;5.67;;;;;;;29.76;41.97;100716.09;1692803;83;21067;-38
2021/07/28 09:12:01;;;;;;;21.25;6.03;;;;;;;29.63;42.41;100709.77;1693338;82;20964;-39
2021/07/28 09:14:36;;;;;;;14.43;5.30;;;;;;;29.54;43.11;100712.81;1696843;83;21051;-38
2021/07/28 09:17:19;;;;;;;19.95;6.08;;;;;;;29.44;44.04;100713.84;1693861;83;22022;-38
2021/07/28 09:19:47;;;;;;;13.83;5.00;;;;;;;29.35;44.46;100714.19;1692669;83;21038;-38
2021/07/28 09:22:16;;;;;;;10.90;4.92;;;;;;;29.25;45.80;100714.20;1702715;83;21059;-39
2021/07/28 09:24:44;;;;;;;17.95;6.10;;;;;;;29.14;47.07;100725.88;1693774;83;21115;-38
2021/07/28 09:27:46;;;;;;;20.20;6.72;;;;;;;28.96;48.91;100730.62;1698595;83;20980;-40
2021/07/28 09:30:29;;;;;;;27.82;7.03;;;;;;;28.79;48.89;100730.00;1612790;86;21921;-38
2021/07/28 09:33:06;;;;;;;21.33;6.70;;;;;;;28.56;50.10;100728.09;1641893;86;21543;-37
2021/07/28 09:35:56;;;;;;;27.70;7.00;;;;;;;28.45;50.86;100735.72;1713810;81;20943;-38
2021/07/28 09:38:37;;;;;;;27.42;7.05;;;;;;;28.31;51.42;100742.28;1742643;81;21035;-39
2021/07/28 09:41:19;;;;;;;17.30;6.53;;;;;;;28.11;50.79;100736.38;1747241;81;21363;-38
2021/07/28 09:43:58;;;;;;;23.00;6.45;;;;;;;27.88;51.94;100742.41;1744523;81;21028;-39
2021/07/28 09:46:38;;;;;;;16.55;6.90;;;;;;;27.70;53.03;100735.57;1742180;81;21552;-38
2021/07/28 09:49:08;;;;;;;25.45;7.30;;;;;;;27.63;53.64;100742.37;1737885;81;20998;-39
2021/07/28 09:51:36;;;;;;;15.45;7.25;;;;;;;27.44;54.89;100744.42;1739599;81;20979;-39
2021/07/28 09:54:09;;;;;;;21.42;8.13;;;;;;;27.27;54.58;100737.90;1739455;81;21018;-39
2021/07/28 09:56:51;;;;;;;18.48;7.92;;;;;;;27.06;55.88;100740.07;1733580;81;21387;-39
2021/07/28 09:59:19;;;;;;;20.57;7.90;;;;;;;26.89;56.31;100735.67;1743190;81;21520;-40
2021/07/28 10:01:47;;;;;;;22.45;7.72;;;;;;;26.74;56.78;100733.78;1753010;81;22255;-39
2021/07/28 10:04:16;;;;;;;30.25;10.28;;;;;;;26.66;57.74;100737.09;1744600;81;20995;-39
2021/07/28 10:06:46;;;;;;;22.95;8.33;;;;;;;26.67;58.90;100742.77;1740450;81;21887;-37
2021/07/28 10:09:16;;;;;;;16.25;7.45;;;;;;;26.69;58.46;100734.66;1739971;81;21764;-39
2021/07/28 10:11:46;;;;;;;20.97;7.53;;;;;;;26.78;58.85;100733.05;1744840;81;21666;-38
2021/07/28 10:14:16;;;;;;;17.42;7.45;;;;;;;26.89;60.13;100734.34;1744651;81;21987;-39
2021/07/28 10:16:45;;;;;;;19.67;7.45;;;;;;;26.98;59.73;100729.26;1743505;81;21014;-38
2021/07/28 10:19:12;;;;;;;12.65;7.53;;;;;;;27.06;58.01;100730.30;1747821;81;21108;-39
2021/07/28 10:21:38;;;;;;;17.75;7.00;;;;;;;27.19;57.64;100730.58;1724152;81;21046;-38
2021/07/28 10:24:06;;;;;;;17.25;7.17;;;;;;;27.38;57.05;100721.39;1741562;81;21016;-39
2021/07/28 10:26:38;;;;;;;9.18;6.47;;;;;;;27.76;55.16;100709.77;1739173;81;20932;-39
2021/07/28 10:29:05;;;;;;;19.02;7.47;;;;;;;28.29;54.99;100702.50;1739558;81;20948;-39
2021/07/28 10:31:48;;;;;;;9.18;6.35;;;;;;;28.86;53.59;100696.48;1738567;81;20951;-38
2021/07/28 10:34:34;;;;;;;17.57;6.78;;;;;;;29.43;52.32;100689.50;1733440;81;21168;-38
2021/07/28 10:37:04;;;;;;;27.90;6.97;;;;;;;29.90;51.04;100683.22;1719006;81;20987;-39
2021/07/28 10:39:47;;;;;;;29.60;6.80;;;;;;;30.24;49.66;100675.44;1743740;80;20999;-39
2021/07/28 10:42:32;;;;;;;29.23;7.08;;;;;;;30.68;48.87;100672.52;1738570;81;20992;-39
2021/07/28 10:45:09;;;;;;;18.00;6.95;;;;;;;31.22;48.73;100675.08;1727014;81;21043;-39
2021/07/28 10:47:47;;;;;;;17.02;6.45;;;;;;;31.35;46.76;100671.11;1736417;81;21149;-39
2021/07/28 10:50:33;;;;;;;41.08;8.15;;;;;;;31.51;46.66;100668.52;1737043;81;21583;-39
2021/07/28 10:53:02;;;;;;;43.80;7.22;;;;;;;31.93;45.84;100659.29;1733032;81;21048;-38
2021/07/28 10:55:31;;;;;;;49.27;9.20;;;;;;;32.42;46.18;100659.04;1739344;81;20944;-39
2021/07/28 10:58:13;;;;;;;45.83;7.97;;;;;;;32.86;44.52;100660.02;1735801;81;21026;-39
2021/07/28 11:00:48;;;;;;;29.18;6.97;;;;;;;32.91;42.69;100667.06;1735381;80;21825;-39
2021/07/28 11:03:17;;;;;;;27.27;6.90;;;;;;;32.81;43.76;100659.69;1735161;81;21124;-39
2021/07/28 11:05:50;;;;;;;14.23;6.05;;;;;;;32.59;45.45;100666.08;1735998;81;21517;-38
2021/07/28 11:08:20;;;;;;;24.80;5.97;;;;;;;32.32;43.90;100668.55;1735350;81;21038;-38
2021/07/28 11:10:57;;;;;;;24.72;6.42;;;;;;;31.95;44.33;100663.97;1741480;81;21042;-38
2021/07/28 11:13:26;;;;;;;21.05;7.37;;;;;;;31.60;46.42;100664.53;1735093;81;21716;-40
2021/07/28 11:16:04;;;;;;;30.90;8.03;;;;;;;31.32;45.97;100664.75;1741211;81;20967;-38
2021/07/28 11:18:37;;;;;;;12.58;5.95;;;;;;;31.12;46.54;100662.27;1706355;81;21026;-39
2021/07/28 11:21:29;;;;;;;39.25;7.55;;;;;;;31.15;46.11;100663.28;1739310;81;20975;-38
2021/07/28 11:24:00;;;;;;;33.48;7.50;;;;;;;31.16;45.77;100660.13;1726627;81;20996;-38
2021/07/28 11:26:30;;;;;;;12.18;6.37;;;;;;;31.12;46.28;100659.60;1738287;81;21122;-38
2021/07/28 11:29:01;;;;;;;40.40;9.75;;;;;;;31.18;47.00;100656.80;1740440;81;21049;-39
2021/07/28 11:31:31;;;;;;;31.00;6.95;;;;;;;31.20;47.10;100655.69;1741366;81;21564;-39
2021/07/28 11:34:10;;;;;;;20.45;6.67;;;;;;;31.20;47.51;100660.18;1733768;81;21003;-39
2021/07/28 11:36:39;;;;;;;29.63;7.70;;;;;;;31.20;48.51;100657.51;1730883;82;21561;-39
2021/07/28 11:39:16;;;;;;;16.10;6.08;;;;;;;31.28;48.39;100654.04;1731346;82;21122;-39
2021/07/28 11:41:43;;;;;;;23.87;6.30;;;;;;;31.50;48.56;100646.79;1710967;82;21569;-39
2021/07/28 11:44:11;;;;;;;32.42;6.40;;;;;;;31.79;47.37;100641.55;1710681;82;21506;-39
2021/07/28 11:46:38;;;;;;;21.93;7.10;;;;;;;32.03;47.02;100639.92;1729601;82;20956;-39
2021/07/28 11:49:07;;;;;;;21.10;6.50;;;;;;;32.16;46.94;100632.75;1728909;82;20936;-39
2021/07/28 11:51:42;;;;;;;16.70;5.83;;;;;;;32.22;47.82;100629.39;1722654;81;21227;-39
2021/07/28 11:54:14;;;;;;;24.82;6.33;;;;;;;32.48;46.18;100627.59;1723613;82;20908;-39
2021/07/28 11:56:52;;;;;;;17.90;6.28;;;;;;;32.55;46.91;100623.23;1732281;82;21003;-39
2021/07/28 11:59:23;;;;;;;27.48;5.47;;;;;;;32.60;44.54;100618.19;1735081;82;21007;-39
2021/07/28 12:01:52;;;;;;;20.20;6.00;;;;;;;32.44;43.89;100616.86;1728998;82;21715;-38
2021/07/28 12:04:23;;;;;;;19.25;6.03;;;;;;;32.46;43.45;100610.34;1724782;82;21580;-39
2021/07/28 12:06:51;;;;;;;26.05;5.90;;;;;;;32.38;43.33;100615.20;1728270;82;20999;-39
2021/07/28 12:09:24;;;;;;;19.32;5.30;;;;;;;32.19;44.81;100616.83;1739059;82;21489;-39
2021/07/28 12:12:09;;;;;;;34.98;6.70;;;;;;;32.18;45.28;100615.16;1728251;81;21019;-38
2021/07/28 12:14:43;;;;;;;30.57;6.53;;;;;;;32.47;44.18;100613.36;1730750;82;21249;-39
2021/07/28 12:17:22;;;;;;;18.05;5.45;;;;;;;32.61;44.25;100607.81;1738213;82;22499;-39
2021/07/28 12:20:06;;;;;;;12.55;5.00;;;;;;;32.63;43.73;100615.69;1729324;82;21052;-39
2021/07/28 12:22:36;;;;;;;14.95;4.95;;;;;;;32.83;43.03;100609.45;1739825;82;21316;-39
2021/07/28 12:25:16;;;;;;;19.10;5.53;;;;;;;33.16;42.64;100609.36;1747275;82;20980;-38
2021/07/28 12:27:59;;;;;;;27.45;5.50;;;;;;;33.31;42.04;100605.96;1730323;82;21000;-39
2021/07/28 12:30:39;;;;;;;39.05;6.03;;;;;;;33.33;40.99;100599.91;1726779;82;23327;-39
2021/07/28 12:33:10;;;;;;;16.45;4.92;;;;;;;33.15;41.56;100592.95;1735185;81;21722;-39
2021/07/28 12:35:46;;;;;;;24.23;4.55;;;;;;;33.12;41.03;100595.98;1750822;81;20996;-39
2021/07/28 12:38:22;;;;;;;24.25;5.05;;;;;;;33.18;40.06;100581.05;1749983;81;21023;-39
2021/07/28 12:40:57;;;;;;;16.73;4.85;;;;;;;33.17;39.92;100582.87;1750719;81;20941;-39
2021/07/28 12:43:32;;;;;;;19.40;4.50;;;;;;;33.09;40.24;100576.22;1740613;81;21225;-39
2021/07/28 12:46:01;;;;;;;12.45;3.80;;;;;;;33.00;40.43;100570.58;1744606;81;21050;-39
2021/07/28 12:48:28;;;;;;;12.70;3.72;;;;;;;32.86;38.17;100570.25;1752922;81;20934;-39